createdAt,value
2018-12-12T00:02:12.135Z,1.13
2018-12-12T00:04:41.521Z,1.37
2018-12-12T00:07:11.107Z,1.43
2018-12-12T00:09:40.287Z,1.43
2018-12-12T00:12:09.596Z,1.60
2018-12-12T00:14:38.773Z,1.50
2018-12-12T00:17:08.139Z,1.30
2018-12-12T00:19:37.579Z,1.47
2018-12-12T00:22:06.761Z,1.37
2018-12-12T00:24:36.066Z,1.30
2018-12-12T00:27:05.277Z,1.27
2018-12-12T00:29:34.539Z,1.30
2018-12-12T00:32:03.589Z,1.07
2018-12-12T00:34:32.844Z,1.17
2018-12-12T00:37:02.164Z,1.13
2018-12-12T00:39:31.561Z,1.20
2018-12-12T00:42:00.960Z,0.97
2018-12-12T00:44:30.254Z,1.13
2018-12-12T00:46:59.739Z,1.00
2018-12-12T00:49:28.985Z,0.93
2018-12-12T00:51:58.510Z,1.00
2018-12-12T00:54:28.398Z,1.00
2018-12-12T00:56:57.627Z,0.90
2018-12-12T00:59:27.112Z,0.90
2018-12-12T01:01:56.403Z,1.17
2018-12-12T01:04:25.567Z,0.73
2018-12-12T01:06:54.798Z,0.90
2018-12-12T01:09:23.864Z,0.97
2018-12-12T01:11:57.952Z,1.00
2018-12-12T01:14:27.269Z,1.03
2018-12-12T01:16:56.379Z,0.83
2018-12-12T01:19:25.932Z,0.90
2018-12-12T01:21:55.128Z,1.00
2018-12-12T01:24:24.354Z,0.90
2018-12-12T01:26:53.874Z,1.00
2018-12-12T01:29:23.040Z,1.20
2018-12-12T01:31:52.504Z,0.83
2018-12-12T01:34:21.953Z,1.30
2018-12-12T01:36:52.231Z,1.10
2018-12-12T01:39:22.022Z,0.97
2018-12-12T01:41:51.516Z,1.00
2018-12-12T01:44:21.260Z,1.00
2018-12-12T01:46:50.557Z,1.00
2018-12-12T01:49:20.024Z,1.10
2018-12-12T01:51:49.465Z,0.80
2018-12-12T01:54:18.531Z,0.97
2018-12-12T01:56:47.689Z,1.03
2018-12-12T01:59:16.916Z,1.20
2018-12-12T02:01:46.239Z,1.30
2018-12-12T02:04:15.515Z,1.10
2018-12-12T02:06:44.990Z,1.30
2018-12-12T02:09:14.047Z,1.10
2018-12-12T02:11:43.080Z,1.23
2018-12-12T02:14:12.462Z,0.90
2018-12-12T02:16:41.753Z,1.20
2018-12-12T02:19:10.959Z,1.10
2018-12-12T02:21:40.065Z,1.20
2018-12-12T02:24:09.098Z,1.37
2018-12-12T02:26:38.330Z,1.30
2018-12-12T02:29:07.723Z,1.30
2018-12-12T02:31:36.809Z,1.40
2018-12-12T02:34:05.938Z,1.40
2018-12-12T02:36:35.076Z,1.20
2018-12-12T02:39:05.202Z,1.50
2018-12-12T02:41:34.325Z,1.20
2018-12-12T02:44:03.723Z,1.40
2018-12-12T02:46:33.252Z,1.47
2018-12-12T02:49:02.455Z,1.40
2018-12-12T02:51:31.549Z,1.40
2018-12-12T02:54:00.675Z,1.30
2018-12-12T02:56:29.765Z,1.20
2018-12-12T02:58:59.005Z,1.30
2018-12-12T03:01:29.232Z,1.13
2018-12-12T03:03:58.489Z,1.40
2018-12-12T03:06:27.837Z,1.40
2018-12-12T03:08:56.964Z,1.40
2018-12-12T03:11:26.183Z,1.40
2018-12-12T03:13:55.269Z,1.50
2018-12-12T03:16:24.291Z,1.60
2018-12-12T03:18:54.232Z,1.67
2018-12-12T03:21:23.517Z,1.40
2018-12-12T03:23:52.737Z,1.30
2018-12-12T03:26:21.908Z,1.50
2018-12-12T03:28:51.175Z,1.30
2018-12-12T03:31:20.761Z,1.40
2018-12-12T03:33:50.117Z,1.50
2018-12-12T03:36:19.542Z,1.40
2018-12-12T03:38:48.920Z,1.40
2018-12-12T03:41:18.367Z,1.53
2018-12-12T03:43:47.638Z,1.67
2018-12-12T03:46:17.183Z,1.73
2018-12-12T03:48:46.284Z,1.30
2018-12-12T03:51:15.647Z,1.60
2018-12-12T03:53:44.890Z,1.27
2018-12-12T03:56:14.946Z,1.50
2018-12-12T03:58:44.046Z,1.40
2018-12-12T04:01:13.303Z,1.40
2018-12-12T04:03:42.586Z,1.27
2018-12-12T04:06:11.829Z,1.67
2018-12-12T04:08:40.963Z,1.30
2018-12-12T04:11:10.017Z,1.30
2018-12-12T04:13:39.125Z,1.27
2018-12-12T04:16:08.180Z,1.10
2018-12-12T04:18:37.415Z,1.20
2018-12-12T04:21:06.603Z,1.40
2018-12-12T04:23:36.083Z,1.40
2018-12-12T04:26:05.464Z,1.40
2018-12-12T04:28:34.797Z,1.20
2018-12-12T04:31:04.132Z,1.33
2018-12-12T04:33:33.677Z,1.53
2018-12-12T04:36:03.568Z,1.57
2018-12-12T04:38:32.866Z,1.33
2018-12-12T04:41:02.224Z,1.30
2018-12-12T04:43:31.097Z,1.20
2018-12-12T04:46:00.011Z,1.30
2018-12-12T04:48:29.341Z,1.17
2018-12-12T04:50:58.532Z,1.77
2018-12-12T04:53:27.610Z,1.50
2018-12-12T04:55:57.089Z,1.43
2018-12-12T04:58:26.301Z,1.40
2018-12-12T05:00:55.413Z,1.50
2018-12-12T05:03:24.695Z,1.40
2018-12-12T05:05:54.180Z,1.50
2018-12-12T05:08:23.505Z,1.70
2018-12-12T05:10:52.988Z,1.60
2018-12-12T05:13:22.637Z,1.40
2018-12-12T05:15:51.995Z,1.70
2018-12-12T05:18:21.364Z,1.40
2018-12-12T05:20:50.554Z,1.40
2018-12-12T05:23:19.845Z,1.77
2018-12-12T05:25:49.338Z,1.77
2018-12-12T05:28:18.529Z,1.40
2018-12-12T05:30:47.807Z,1.60
2018-12-12T05:33:17.251Z,1.67
2018-12-12T05:35:46.374Z,1.80
2018-12-12T05:38:15.502Z,1.70
2018-12-12T05:40:44.651Z,1.73
2018-12-12T05:43:13.965Z,2.47
2018-12-12T05:45:43.457Z,2.13
2018-12-12T05:48:12.552Z,1.80
2018-12-12T05:50:41.821Z,2.17
2018-12-12T05:53:10.845Z,1.67
2018-12-12T05:55:40.017Z,1.80
2018-12-12T05:58:09.220Z,2.10
2018-12-12T06:00:38.223Z,2.10
2018-12-12T06:03:07.075Z,2.30
2018-12-12T06:05:36.227Z,2.23
2018-12-12T06:08:06.104Z,1.93
2018-12-12T06:10:35.234Z,1.90
2018-12-12T06:13:04.324Z,1.90
2018-12-12T06:15:33.613Z,2.30
2018-12-12T06:18:02.668Z,1.70
2018-12-12T06:20:32.030Z,1.90
2018-12-12T06:23:04.693Z,2.40
2018-12-12T06:25:33.580Z,2.30
2018-12-12T06:28:03.161Z,2.30
2018-12-12T06:30:32.032Z,2.00
2018-12-12T06:33:00.956Z,1.23
2018-12-12T06:35:30.348Z,1.80
2018-12-12T06:37:59.337Z,1.60
2018-12-12T06:40:28.659Z,1.47
2018-12-12T06:42:57.941Z,1.50
2018-12-12T06:45:27.282Z,1.40
2018-12-12T06:47:56.568Z,1.50
2018-12-12T06:50:25.848Z,1.20
2018-12-12T06:52:55.418Z,1.30
2018-12-12T06:55:24.649Z,1.40
2018-12-12T06:57:54.149Z,1.50
2018-12-12T07:00:23.406Z,1.43
2018-12-12T07:02:52.695Z,1.20
2018-12-12T07:05:24.426Z,1.20
2018-12-12T07:07:55.256Z,1.10
2018-12-12T07:10:24.626Z,1.50
2018-12-12T07:12:55.319Z,1.10
2018-12-12T07:15:24.744Z,1.20
2018-12-12T07:17:54.075Z,2.47
2018-12-12T07:20:23.189Z,1.30
2018-12-12T07:22:52.391Z,1.30
2018-12-12T07:25:21.885Z,1.30
2018-12-12T07:27:51.069Z,0.97
2018-12-12T07:30:20.786Z,1.20
2018-12-12T07:32:50.537Z,1.20
2018-12-12T07:35:19.586Z,1.23
2018-12-12T07:37:48.927Z,1.20
2018-12-12T07:40:18.234Z,1.40
2018-12-12T07:42:47.139Z,1.23
2018-12-12T07:45:16.730Z,1.17
2018-12-12T07:47:45.822Z,1.20
2018-12-12T07:50:15.073Z,2.63
2018-12-12T07:52:44.112Z,1.30
2018-12-12T07:55:13.461Z,1.60
2018-12-12T07:57:42.301Z,1.40
2018-12-12T08:00:11.831Z,1.47
2018-12-12T08:02:41.151Z,1.70
2018-12-12T08:05:10.273Z,1.63
2018-12-12T08:07:39.278Z,1.60
2018-12-12T08:10:08.733Z,1.60
2018-12-12T08:12:38.196Z,1.83
2018-12-12T08:15:07.440Z,1.50
2018-12-12T08:17:36.743Z,1.80
2018-12-12T08:20:06.527Z,2.20
2018-12-12T08:22:35.895Z,1.90
2018-12-12T08:25:05.600Z,2.00
2018-12-12T08:27:34.931Z,1.80
2018-12-12T08:30:04.547Z,1.60
2018-12-12T08:32:33.900Z,2.07
2018-12-12T08:35:03.310Z,1.70
2018-12-12T08:37:32.493Z,1.73
2018-12-12T08:40:01.833Z,1.77
2018-12-12T08:42:31.343Z,2.17
2018-12-12T08:45:00.732Z,1.93
2018-12-12T08:47:29.940Z,1.80
2018-12-12T08:49:59.138Z,1.77
2018-12-12T08:52:28.431Z,2.27
2018-12-12T08:54:57.858Z,2.20
2018-12-12T08:57:27.371Z,2.10
2018-12-12T08:59:56.637Z,2.20
2018-12-12T09:02:26.307Z,2.20
2018-12-12T09:04:55.561Z,2.30
2018-12-12T09:07:24.992Z,1.27
2018-12-12T09:09:54.162Z,2.80
2018-12-12T09:12:23.419Z,1.57
2018-12-12T09:14:52.686Z,1.33
2018-12-12T09:17:22.220Z,1.60
2018-12-12T09:19:51.598Z,2.00
2018-12-12T09:22:20.921Z,1.43
2018-12-12T09:24:51.552Z,2.47
2018-12-12T09:27:21.106Z,1.37
2018-12-12T09:29:50.364Z,1.37
2018-12-12T09:32:19.876Z,1.50
2018-12-12T09:34:49.458Z,2.10
2018-12-12T09:37:18.871Z,1.33
2018-12-12T09:39:48.332Z,1.20
2018-12-12T09:42:17.758Z,1.50
2018-12-12T09:44:47.422Z,1.33
2018-12-12T09:47:16.722Z,1.47
2018-12-12T09:49:46.306Z,1.47
2018-12-12T09:52:15.836Z,1.50
2018-12-12T09:54:45.238Z,1.70
2018-12-12T09:57:14.644Z,1.97
2018-12-12T09:59:44.198Z,2.20
2018-12-12T10:02:13.655Z,2.80
2018-12-12T10:04:42.863Z,2.13
2018-12-12T10:07:12.024Z,2.30
2018-12-12T10:09:41.321Z,1.90
2018-12-12T10:12:10.674Z,1.80
2018-12-12T10:14:39.926Z,11.93
2018-12-12T10:17:09.267Z,7.70
2018-12-12T10:19:38.682Z,2.10
2018-12-12T10:22:08.486Z,1.77
2018-12-12T10:24:37.671Z,1.63
2018-12-12T10:27:06.959Z,2.03
2018-12-12T10:29:36.288Z,2.20
2018-12-12T10:32:06.355Z,2.03
2018-12-12T10:34:35.772Z,2.10
2018-12-12T10:37:04.903Z,3.40
2018-12-12T10:39:34.255Z,2.80
2018-12-12T10:42:03.848Z,3.03
2018-12-12T10:44:33.469Z,3.70
2018-12-12T10:47:03.007Z,3.27
2018-12-12T10:49:32.253Z,3.40
2018-12-12T10:52:01.306Z,4.17
2018-12-12T10:54:30.632Z,3.13
2018-12-12T10:56:59.950Z,3.00
2018-12-12T10:59:29.360Z,3.53
2018-12-12T11:02:04.097Z,2.20
2018-12-12T11:04:33.253Z,2.80
2018-12-12T11:07:02.549Z,2.80
2018-12-12T11:09:31.847Z,2.53
2018-12-12T11:12:01.167Z,2.87
2018-12-12T11:14:30.316Z,2.80
2018-12-12T11:16:59.756Z,2.43
2018-12-12T11:19:28.945Z,3.80
2018-12-12T11:21:58.039Z,2.70
2018-12-12T11:24:27.272Z,2.60
2018-12-12T11:26:56.545Z,2.90
2018-12-12T11:29:25.781Z,2.57
2018-12-12T11:31:54.959Z,2.37
2018-12-12T11:34:24.329Z,3.20
2018-12-12T11:36:53.473Z,2.77
2018-12-12T11:39:23.909Z,2.73
2018-12-12T11:41:53.235Z,3.40
2018-12-12T11:44:22.506Z,1.97
2018-12-12T11:46:52.015Z,2.53
2018-12-12T11:49:22.019Z,2.40
2018-12-12T11:51:51.370Z,2.17
2018-12-12T11:54:21.155Z,2.87
2018-12-12T11:56:50.375Z,3.00
2018-12-12T11:59:19.881Z,3.00
2018-12-12T12:01:49.232Z,2.90
2018-12-12T12:04:18.936Z,3.10
2018-12-12T12:06:48.240Z,3.10
2018-12-12T12:09:17.695Z,3.20
2018-12-12T12:11:47.153Z,3.23
2018-12-12T12:14:16.503Z,4.17
2018-12-12T12:16:45.853Z,4.40
2018-12-12T12:19:15.310Z,3.80
2018-12-12T12:21:44.607Z,5.40
2018-12-12T12:24:13.901Z,3.37
2018-12-12T12:26:43.282Z,2.60
2018-12-12T12:29:12.627Z,2.73
2018-12-12T12:31:42.201Z,2.83
2018-12-12T12:34:11.478Z,3.83
2018-12-12T12:36:40.851Z,3.87
2018-12-12T12:39:10.181Z,4.73
2018-12-12T12:41:39.413Z,3.97
2018-12-12T12:44:08.905Z,3.67
2018-12-12T12:46:38.234Z,4.90
2018-12-12T12:49:07.632Z,4.40
2018-12-12T12:51:36.889Z,4.17
2018-12-12T12:54:06.292Z,7.20
2018-12-12T12:56:35.628Z,4.60
2018-12-12T12:59:05.369Z,4.87
2018-12-12T13:01:34.717Z,3.87
2018-12-12T13:04:09.658Z,3.43
2018-12-12T13:06:36.232Z,4.53
2018-12-12T13:09:07.728Z,3.37
2018-12-12T13:11:37.129Z,3.57
2018-12-12T13:14:06.405Z,3.57
2018-12-12T13:16:35.824Z,3.07
2018-12-12T13:19:05.203Z,3.23
2018-12-12T13:21:34.529Z,3.30
2018-12-12T13:24:03.826Z,3.33
2018-12-12T13:26:33.253Z,3.07
2018-12-12T13:29:02.618Z,2.83
2018-12-12T13:31:32.051Z,2.80
2018-12-12T13:34:01.273Z,4.17
2018-12-12T13:36:30.470Z,4.53
2018-12-12T13:38:59.642Z,3.70
2018-12-12T13:41:29.030Z,4.00
2018-12-12T13:43:58.209Z,3.42
2018-12-12T13:46:27.805Z,3.23
2018-12-12T13:48:57.313Z,3.10
2018-12-12T13:51:26.536Z,2.93
2018-12-12T13:53:55.913Z,3.30
2018-12-12T13:56:25.234Z,3.43
2018-12-12T13:58:54.574Z,3.13
2018-12-12T14:01:24.763Z,2.93
2018-12-12T14:03:54.087Z,3.50
2018-12-12T14:06:23.119Z,3.60
2018-12-12T14:08:52.653Z,3.60
2018-12-12T14:11:22.135Z,3.70
2018-12-12T14:13:51.601Z,5.50
2018-12-12T14:16:20.940Z,3.93
2018-12-12T14:18:51.508Z,3.85
2018-12-12T14:21:20.851Z,3.83
2018-12-12T14:23:50.366Z,3.93
2018-12-12T14:26:19.893Z,4.70
2018-12-12T14:28:49.319Z,3.60
2018-12-12T14:31:18.745Z,3.80
2018-12-12T14:33:48.002Z,4.00
2018-12-12T14:36:17.125Z,4.23
2018-12-12T14:38:46.087Z,3.53
2018-12-12T14:41:14.978Z,4.10
2018-12-12T14:43:44.019Z,3.70
2018-12-12T14:46:13.067Z,4.13
2018-12-12T14:48:41.922Z,4.40
2018-12-12T14:51:10.895Z,4.07
2018-12-12T14:53:39.846Z,3.60
2018-12-12T14:56:08.780Z,3.63
2018-12-12T14:58:38.132Z,3.77
2018-12-12T15:01:07.229Z,3.83
2018-12-12T15:03:36.631Z,3.70
2018-12-12T15:06:06.707Z,3.45
2018-12-12T15:08:35.942Z,3.85
2018-12-12T15:11:05.419Z,4.70
2018-12-12T15:13:35.203Z,3.53
2018-12-12T15:16:05.060Z,4.03
2018-12-12T15:18:34.531Z,4.73
2018-12-12T15:21:03.974Z,4.00
2018-12-12T15:23:33.543Z,4.07
2018-12-12T15:26:02.962Z,3.92
2018-12-12T15:28:32.247Z,4.40
2018-12-12T15:31:01.671Z,4.00
2018-12-12T15:33:31.036Z,3.90
2018-12-12T15:36:00.580Z,3.90
2018-12-12T15:38:29.839Z,4.17
2018-12-12T15:40:59.424Z,4.00
2018-12-12T15:43:28.583Z,4.83
2018-12-12T15:45:57.940Z,4.30
2018-12-12T15:48:26.967Z,4.80
2018-12-12T15:54:28.190Z,3.93
2018-12-12T15:56:57.861Z,3.73
2018-12-12T15:59:27.122Z,4.70
2018-12-12T16:01:56.388Z,4.28
2018-12-12T16:04:25.554Z,3.90
2018-12-12T16:06:54.970Z,4.97
2018-12-12T16:09:24.261Z,4.77
2018-12-12T16:11:53.618Z,5.10
2018-12-12T16:14:23.203Z,4.20
2018-12-12T16:16:52.465Z,3.90
2018-12-12T16:19:23.011Z,4.10
2018-12-12T16:21:52.561Z,4.40
2018-12-12T16:24:21.998Z,4.27
2018-12-12T16:26:51.322Z,4.83
2018-12-12T16:29:21.703Z,4.93
2018-12-12T16:31:50.891Z,4.70
2018-12-12T16:34:20.495Z,4.60
2018-12-12T16:36:49.945Z,4.40
2018-12-12T16:39:19.610Z,4.27
2018-12-12T16:41:48.902Z,4.50
2018-12-12T16:44:17.845Z,4.23
2018-12-12T16:46:46.977Z,4.57
2018-12-12T16:49:16.263Z,4.40
2018-12-12T16:51:45.549Z,4.80
2018-12-12T16:54:15.029Z,4.40
2018-12-12T16:56:44.275Z,4.70
2018-12-12T16:59:13.617Z,4.78
2018-12-12T17:01:43.094Z,4.73
2018-12-12T17:04:12.354Z,4.23
2018-12-12T17:06:41.782Z,4.77
2018-12-12T17:09:11.132Z,4.87
2018-12-12T17:11:40.460Z,5.20
2018-12-12T17:14:09.520Z,4.43
2018-12-12T17:16:38.485Z,5.10
2018-12-12T17:19:07.696Z,4.97
2018-12-12T17:21:37.501Z,5.07
2018-12-12T17:24:06.469Z,4.70
2018-12-12T17:26:35.552Z,5.00
2018-12-12T17:29:04.985Z,6.13
2018-12-12T17:31:33.970Z,6.07
2018-12-12T17:34:03.051Z,5.33
2018-12-12T17:36:32.184Z,6.57
2018-12-12T17:39:01.158Z,4.70
2018-12-12T17:41:30.108Z,5.50
2018-12-12T17:43:59.104Z,5.40
2018-12-12T17:46:28.254Z,5.57
2018-12-12T17:48:57.392Z,5.40
2018-12-12T17:51:26.380Z,4.75
2018-12-12T17:53:55.402Z,5.23
2018-12-12T17:56:24.371Z,5.03
2018-12-12T17:58:53.470Z,4.90
2018-12-12T18:01:22.410Z,5.60
2018-12-12T18:03:51.933Z,5.05
2018-12-12T18:06:21.467Z,4.50
2018-12-12T18:08:50.456Z,4.75
2018-12-12T18:11:19.531Z,4.15
2018-12-12T18:13:48.830Z,4.70
2018-12-12T18:16:17.933Z,4.70
2018-12-12T18:18:46.945Z,4.77
2018-12-12T18:21:16.107Z,4.63
2018-12-12T18:23:45.406Z,4.83
2018-12-12T18:26:14.726Z,4.87
2018-12-12T18:28:43.923Z,4.70
2018-12-12T18:31:13.203Z,4.73
2018-12-12T18:33:42.570Z,4.70
2018-12-12T18:36:11.739Z,5.43
2018-12-12T18:38:40.986Z,5.30
2018-12-12T18:41:10.269Z,4.60
2018-12-12T18:43:39.545Z,4.80
2018-12-12T18:46:09.181Z,5.00
2018-12-12T18:48:38.541Z,4.97
2018-12-12T18:51:07.729Z,4.20
2018-12-12T18:53:36.976Z,4.27
2018-12-12T18:56:06.553Z,4.10
2018-12-12T18:58:35.598Z,4.37
2018-12-12T19:01:04.604Z,4.30
2018-12-12T19:03:33.838Z,3.00
2018-12-12T19:06:03.450Z,2.80
2018-12-12T19:08:32.565Z,2.73
2018-12-12T19:11:01.730Z,2.33
2018-12-12T19:13:30.828Z,2.30
2018-12-12T19:15:59.846Z,2.47
2018-12-12T19:18:28.964Z,2.90
2018-12-12T19:21:00.192Z,3.00
2018-12-12T19:23:30.057Z,3.10
2018-12-12T19:26:00.753Z,2.92
2018-12-12T19:28:30.002Z,3.15
2018-12-12T19:30:59.867Z,3.40
2018-12-12T19:33:29.679Z,3.53
2018-12-12T19:35:59.834Z,3.03
2018-12-12T19:38:29.573Z,3.10
2018-12-12T19:40:58.727Z,2.10
2018-12-12T19:43:27.860Z,3.47
2018-12-12T19:45:57.650Z,2.90
2018-12-12T19:48:29.482Z,2.30
2018-12-12T19:50:59.268Z,2.47
2018-12-12T19:56:21.332Z,2.97
2018-12-12T19:58:50.381Z,2.70
2018-12-12T20:01:19.511Z,2.47
2018-12-12T20:03:48.457Z,2.10
2018-12-12T20:06:17.307Z,2.60
2018-12-12T20:08:46.253Z,1.93
2018-12-12T20:11:15.191Z,2.17
2018-12-12T20:13:44.152Z,2.00
2018-12-12T20:16:13.053Z,1.70
2018-12-12T20:18:41.976Z,1.70
2018-12-12T20:21:11.015Z,1.50
2018-12-12T20:23:40.232Z,1.30
2018-12-12T20:26:09.943Z,1.50
2018-12-12T20:28:38.934Z,1.20
2018-12-12T20:31:07.869Z,0.93
2018-12-12T20:33:36.750Z,1.00
2018-12-12T20:36:05.861Z,1.10
2018-12-12T20:38:34.797Z,1.40
2018-12-12T20:41:03.824Z,1.00
2018-12-12T20:43:32.675Z,0.90
2018-12-12T20:46:01.629Z,1.10
2018-12-12T20:48:30.664Z,1.73
2018-12-12T20:50:59.689Z,0.90
2018-12-12T20:53:28.632Z,0.80
2018-12-12T20:55:57.565Z,0.80
2018-12-12T20:58:26.633Z,1.00
2018-12-12T21:00:55.704Z,1.20
2018-12-12T21:03:24.719Z,1.70
2018-12-12T21:05:54.645Z,1.17
2018-12-12T21:08:23.962Z,0.90
2018-12-12T21:10:52.911Z,1.10
2018-12-12T21:13:22.437Z,1.00
2018-12-12T21:15:51.623Z,0.83
2018-12-12T21:18:21.694Z,0.80
2018-12-12T21:20:50.916Z,0.90
2018-12-12T21:23:20.294Z,0.73
2018-12-12T21:25:51.464Z,1.00
2018-12-12T21:28:21.370Z,0.83
2018-12-12T21:30:50.818Z,1.20
2018-12-12T21:33:19.918Z,0.70
2018-12-12T21:35:48.839Z,0.70
2018-12-12T21:38:17.842Z,0.80
2018-12-12T21:40:47.672Z,1.03
2018-12-12T21:43:17.003Z,0.70
2018-12-12T21:45:46.014Z,0.60
2018-12-12T21:48:15.050Z,1.00
2018-12-12T21:50:44.178Z,1.00
2018-12-12T21:53:13.109Z,0.70
2018-12-12T21:55:42.212Z,1.00
2018-12-12T21:58:11.102Z,0.70
2018-12-12T22:00:40.064Z,0.90
2018-12-12T22:03:09.109Z,0.90
2018-12-12T22:05:38.110Z,0.97
2018-12-12T22:08:06.998Z,1.10
2018-12-12T22:10:36.093Z,1.00
2018-12-12T22:13:05.120Z,0.88
2018-12-12T22:15:33.954Z,0.95
2018-12-12T22:18:03.397Z,0.70
2018-12-12T22:20:32.267Z,0.90
2018-12-12T22:23:01.072Z,0.73
2018-12-12T22:25:30.018Z,0.97
2018-12-12T22:27:58.841Z,0.93
2018-12-12T22:30:27.971Z,0.90
2018-12-12T22:32:56.711Z,0.90
2018-12-12T22:35:25.501Z,0.70
2018-12-12T22:37:54.398Z,0.90
2018-12-12T22:40:23.765Z,0.87
2018-12-12T22:42:52.676Z,0.80
2018-12-12T22:45:21.904Z,1.12
2018-12-12T22:47:51.498Z,0.90
2018-12-12T22:50:20.867Z,0.90
2018-12-12T22:52:49.966Z,0.90
2018-12-12T22:55:18.967Z,0.90
2018-12-12T22:57:47.846Z,0.80
2018-12-12T23:01:21.867Z,0.90
2018-12-12T23:03:50.712Z,0.80
2018-12-12T23:06:20.457Z,0.80
2018-12-12T23:08:49.798Z,0.80
2018-12-12T23:11:18.747Z,0.90
2018-12-12T23:13:47.631Z,1.00
2018-12-12T23:16:16.614Z,0.60
2018-12-12T23:18:46.556Z,0.72
2018-12-12T23:21:15.395Z,1.00
2018-12-12T23:23:44.240Z,1.00
2018-12-12T23:26:13.260Z,0.83
2018-12-12T23:28:42.087Z,0.80
2018-12-12T23:31:10.920Z,0.70
2018-12-12T23:33:39.998Z,0.63
2018-12-12T23:36:08.912Z,0.70
2018-12-12T23:38:37.705Z,0.70
2018-12-12T23:41:06.569Z,0.90
2018-12-12T23:43:35.315Z,0.60
2018-12-12T23:46:05.120Z,0.80
2018-12-12T23:48:33.890Z,0.87
2018-12-12T23:51:02.924Z,0.90
2018-12-12T23:53:31.755Z,0.90
2018-12-12T23:56:00.529Z,0.63
2018-12-12T23:58:29.451Z,0.60
